Terminal Aerodrome Forecast
Issued by NWS

Home | Current Version | Previous Version | Text Only | Print | Product List | Glossary On
Versions: 1 2 3 4 5 6 7 8 9 10 11 12 13 14 15 16 17
000
FTUS41 KBTV 281720
TAFSLK
TAF
KSLK 281720Z 2818/2918 26008KT P6SM VCSH OVC040
      TEMPO 2818/2820 4SM -SHRA OVC040
     FM282000 26007KT P6SM OVC045
     FM290000 VRB03KT P6SM SCT110
     FM290800 00000KT 3SM BR SKC
     FM291200 00000KT P6SM SKC=

USA.gov is the U.S. government's official web portal to all federal, state and local government web resources and services.